createdAt,value
2022-09-26T06:14:52.533Z,9.53
2022-09-26T06:24:52.442Z,9.87
2022-09-26T06:34:52.836Z,10.51
2022-09-26T06:44:52.661Z,10.11
2022-09-26T06:54:52.528Z,10.07
2022-09-26T07:04:52.475Z,10.30
2022-09-26T07:14:53.825Z,10.68
2022-09-26T07:24:52.689Z,11.07
2022-09-26T07:34:52.549Z,12.69
2022-09-26T07:45:21.837Z,12.62
2022-09-26T07:54:52.625Z,12.25
2022-09-26T08:04:54.575Z,12.32
2022-09-26T08:14:52.541Z,12.66
2022-09-26T08:24:52.724Z,12.79
2022-09-26T08:34:52.438Z,12.88
2022-09-26T08:44:52.654Z,12.73
2022-09-26T08:54:52.698Z,13.42
2022-09-26T09:04:54.051Z,13.14
2022-09-26T09:15:13.756Z,12.71
2022-09-26T09:24:52.756Z,12.71
2022-09-26T09:34:53.954Z,13.10
2022-09-26T09:44:52.728Z,13.42
2022-09-26T09:54:52.629Z,13.29
2022-09-26T10:04:52.584Z,13.52
2022-09-26T10:14:52.820Z,13.49
2022-09-26T10:24:52.795Z,13.68
2022-09-26T10:34:52.793Z,13.95
2022-09-26T10:44:52.731Z,13.53
2022-09-26T10:54:52.784Z,13.37
2022-09-26T11:04:52.826Z,13.36
2022-09-26T11:14:52.798Z,13.00
2022-09-26T11:24:52.813Z,12.53
2022-09-26T11:34:52.718Z,12.81
2022-09-26T11:44:52.696Z,13.10
2022-09-26T11:54:52.831Z,13.35
2022-09-26T12:04:52.791Z,13.19
2022-09-26T12:14:52.847Z,12.82
2022-09-26T12:24:52.837Z,12.63
2022-09-26T12:34:52.705Z,12.55
2022-09-26T12:44:52.751Z,12.23
2022-09-26T12:54:52.754Z,12.04
2022-09-26T13:04:52.890Z,11.86
2022-09-26T13:14:52.826Z,11.96
2022-09-26T13:24:52.915Z,11.83
2022-09-26T13:34:52.808Z,11.82
2022-09-26T13:44:52.771Z,11.92
2022-09-26T13:54:52.937Z,11.96
2022-09-26T14:04:52.807Z,12.14
2022-09-26T14:14:52.811Z,12.18
2022-09-26T14:24:52.826Z,12.05
2022-09-26T14:34:52.810Z,12.04
2022-09-26T14:44:52.919Z,11.93
2022-09-26T14:54:53.117Z,11.87
2022-09-26T15:04:53.040Z,11.87
2022-09-26T15:14:52.957Z,11.86
2022-09-26T15:24:53.105Z,11.86
2022-09-26T15:34:52.991Z,11.90
2022-09-26T15:44:52.937Z,12.11
2022-09-26T15:54:53.057Z,12.19
2022-09-26T16:04:53.129Z,12.38
2022-09-26T16:14:53.038Z,12.36
2022-09-26T16:24:53.166Z,12.37
2022-09-26T16:34:53.128Z,12.31
2022-09-26T16:44:53.002Z,12.17
2022-09-26T16:54:53.196Z,11.84
2022-09-26T17:04:53.177Z,11.71
2022-09-26T17:14:53.192Z,11.52
2022-09-26T17:24:53.115Z,11.42
2022-09-26T17:34:53.205Z,11.32
2022-09-26T17:44:53.183Z,11.42
2022-09-26T17:54:53.238Z,11.47
2022-09-26T18:04:53.161Z,11.60
2022-09-26T18:14:53.094Z,11.60
2022-09-26T18:24:53.202Z,11.60
2022-09-26T18:34:53.315Z,11.68
2022-09-26T18:44:53.495Z,11.64
2022-09-26T18:54:53.523Z,11.72
2022-09-26T19:04:53.764Z,11.73
2022-09-26T19:14:53.908Z,11.62
